Time;durP1;ratioP1;P1;durP2;ratioP2;P2;SDS_P1;SDS_P2;PMS_P1;PMS_P2;Temp;Humidity;BMP_temperature;BMP_pressure;BME280_temperature;BME280_humidity;BME280_pressure;Samples;Min_cycle;Max_cycle;Signal;HPM_P1;HPM_P2
2022/03/11 00:01:46;;;;;;;16.75;8.90;;;;;;;;;;5054102;28;20496;-58
2022/03/11 00:04:12;;;;;;;13.60;7.80;;;;;;;;;;5046938;28;20041;-57
2022/03/11 00:06:39;;;;;;;12.32;7.38;;;;;;;;;;5053645;28;20057;-58
2022/03/11 00:09:05;;;;;;;14.25;6.90;;;;;;;;;;5052199;28;20424;-59
2022/03/11 00:11:31;;;;;;;14.52;8.57;;;;;;;;;;5052805;28;20044;-58
2022/03/11 00:13:57;;;;;;;13.45;7.88;;;;;;;;;;5027629;28;20056;-58
2022/03/11 00:16:25;;;;;;;14.93;8.07;;;;;;;;;;5035810;28;20128;-58
2022/03/11 00:18:52;;;;;;;14.20;8.10;;;;;;;;;;5026373;28;20086;-58
2022/03/11 00:21:18;;;;;;;14.00;7.32;;;;;;;;;;5034315;28;20534;-58
2022/03/11 00:23:44;;;;;;;13.18;7.70;;;;;;;;;;5047112;28;20036;-58
2022/03/11 00:26:10;;;;;;;14.00;7.97;;;;;;;;;;5054273;28;20171;-57
2022/03/11 00:28:36;;;;;;;15.98;8.95;;;;;;;;;;5052276;28;20078;-58
2022/03/11 00:31:04;;;;;;;14.00;8.82;;;;;;;;;;5052812;28;20048;-58
2022/03/11 00:33:30;;;;;;;12.88;8.05;;;;;;;;;;5047621;28;20404;-58
2022/03/11 00:35:56;;;;;;;16.15;7.78;;;;;;;;;;5032921;28;20045;-58
2022/03/11 00:38:23;;;;;;;14.15;8.18;;;;;;;;;;5049799;28;20072;-58
2022/03/11 00:40:51;;;;;;;12.95;7.40;;;;;;;;;;5035882;28;20048;-58
2022/03/11 00:43:17;;;;;;;13.57;7.28;;;;;;;;;;5030507;28;20551;-58
2022/03/11 00:45:43;;;;;;;14.27;8.48;;;;;;;;;;5048451;28;20040;-57
2022/03/11 00:48:09;;;;;;;14.55;8.25;;;;;;;;;;5049020;28;20045;-58
2022/03/11 00:50:36;;;;;;;16.17;7.78;;;;;;;;;;5046017;28;20556;-58
2022/03/11 00:53:02;;;;;;;15.57;8.20;;;;;;;;;;5030919;28;20243;-57
2022/03/11 00:55:28;;;;;;;15.57;8.45;;;;;;;;;;5048516;28;20052;-58
2022/03/11 00:57:54;;;;;;;14.20;8.40;;;;;;;;;;5052167;28;20044;-59
2022/03/11 01:00:21;;;;;;;16.05;8.45;;;;;;;;;;5027360;28;20044;-58
2022/03/11 01:02:47;;;;;;;12.38;7.50;;;;;;;;;;5048764;28;20051;-58
2022/03/11 01:05:13;;;;;;;16.25;8.10;;;;;;;;;;5041372;28;20098;-57
2022/03/11 01:07:39;;;;;;;11.82;7.45;;;;;;;;;;5034401;28;20037;-58
2022/03/11 01:10:06;;;;;;;16.48;8.48;;;;;;;;;;5050584;28;20115;-58
2022/03/11 01:12:32;;;;;;;13.57;7.93;;;;;;;;;;5056407;28;20514;-58
2022/03/11 01:14:59;;;;;;;15.05;9.05;;;;;;;;;;5045651;28;20037;-57
2022/03/11 01:17:25;;;;;;;16.48;8.77;;;;;;;;;;5052238;28;20049;-57
2022/03/11 01:19:51;;;;;;;14.77;8.30;;;;;;;;;;5031639;28;20813;-57
2022/03/11 01:22:17;;;;;;;15.43;8.85;;;;;;;;;;5052321;28;20057;-58
2022/03/11 01:24:43;;;;;;;13.98;7.60;;;;;;;;;;5048512;28;20503;-60
2022/03/11 01:27:09;;;;;;;12.20;6.63;;;;;;;;;;5049999;28;20090;-57
2022/03/11 01:29:35;;;;;;;13.73;8.00;;;;;;;;;;5048307;28;20484;-57
2022/03/11 01:32:01;;;;;;;14.48;8.23;;;;;;;;;;5049846;28;20416;-57
2022/03/11 01:34:27;;;;;;;16.40;7.93;;;;;;;;;;5031484;28;20391;-60
2022/03/11 01:36:53;;;;;;;15.93;8.65;;;;;;;;;;5051071;28;20047;-58
2022/03/11 01:39:20;;;;;;;14.85;7.90;;;;;;;;;;5034616;28;20053;-58
2022/03/11 01:41:46;;;;;;;14.82;7.85;;;;;;;;;;5047832;28;20424;-57
2022/03/11 01:44:12;;;;;;;13.95;8.45;;;;;;;;;;5030275;28;20112;-59
2022/03/11 01:46:38;;;;;;;13.23;7.53;;;;;;;;;;5048886;28;20099;-58
2022/03/11 01:49:05;;;;;;;13.60;7.75;;;;;;;;;;5027330;28;20540;-59
2022/03/11 01:51:33;;;;;;;10.85;6.22;;;;;;;;;;5045560;28;20193;-58
2022/03/11 01:53:59;;;;;;;16.55;9.20;;;;;;;;;;5033840;28;20409;-60
2022/03/11 01:56:25;;;;;;;16.85;8.02;;;;;;;;;;5026150;28;20504;-58
2022/03/11 01:58:52;;;;;;;12.07;7.75;;;;;;;;;;5048741;28;20119;-58
2022/03/11 02:01:18;;;;;;;14.07;7.28;;;;;;;;;;5016007;28;20408;-58
2022/03/11 02:03:45;;;;;;;16.45;7.55;;;;;;;;;;5034122;28;20413;-58
2022/03/11 02:06:13;;;;;;;15.77;8.45;;;;;;;;;;5045876;28;20053;-57
2022/03/11 02:08:39;;;;;;;15.30;8.40;;;;;;;;;;5052151;28;20059;-59
2022/03/11 02:11:06;;;;;;;15.07;7.63;;;;;;;;;;5047995;28;20114;-58
2022/03/11 02:13:42;;;;;;;14.02;8.40;;;;;;;;;;5046831;28;20045;-57
2022/03/11 02:16:08;;;;;;;15.98;7.93;;;;;;;;;;5026517;28;20102;-60
2022/03/11 02:18:37;;;;;;;15.57;8.13;;;;;;;;;;5032711;28;20095;-57
2022/03/11 02:21:03;;;;;;;15.77;8.45;;;;;;;;;;5032953;28;20186;-57
2022/03/11 02:23:30;;;;;;;14.80;8.85;;;;;;;;;;5033973;28;20057;-58
2022/03/11 02:25:56;;;;;;;17.98;8.98;;;;;;;;;;5023317;28;20102;-57
2022/03/11 02:28:30;;;;;;;14.45;7.82;;;;;;;;;;5049298;28;20179;-58
2022/03/11 02:30:57;;;;;;;18.00;8.77;;;;;;;;;;5047176;28;20499;-58
2022/03/11 02:33:23;;;;;;;17.02;8.40;;;;;;;;;;5031865;28;20519;-61
2022/03/11 02:35:49;;;;;;;13.00;7.35;;;;;;;;;;5043357;28;20075;-58
2022/03/11 02:38:15;;;;;;;14.80;8.07;;;;;;;;;;5051365;28;20079;-57
2022/03/11 02:40:41;;;;;;;16.73;8.32;;;;;;;;;;5033060;28;20048;-60
2022/03/11 02:43:07;;;;;;;16.08;8.18;;;;;;;;;;5050083;28;20052;-58
2022/03/11 02:45:33;;;;;;;14.77;7.28;;;;;;;;;;5030740;28;20071;-57
2022/03/11 02:47:59;;;;;;;17.17;7.85;;;;;;;;;;5049641;28;20053;-59
2022/03/11 02:50:25;;;;;;;14.10;7.38;;;;;;;;;;5048053;28;20040;-58
2022/03/11 02:52:51;;;;;;;18.35;8.20;;;;;;;;;;5044058;28;20444;-57
2022/03/11 02:55:17;;;;;;;16.00;8.25;;;;;;;;;;5043912;28;20045;-60
2022/03/11 02:57:43;;;;;;;14.77;7.63;;;;;;;;;;5049696;28;20052;-58
2022/03/11 03:00:10;;;;;;;16.92;8.88;;;;;;;;;;5049032;28;20091;-60
2022/03/11 03:02:36;;;;;;;15.32;8.60;;;;;;;;;;5047145;28;20052;-60
2022/03/11 03:05:02;;;;;;;16.25;7.40;;;;;;;;;;5044254;28;20049;-58
2022/03/11 03:07:30;;;;;;;13.70;8.18;;;;;;;;;;5050319;28;20049;-58
2022/03/11 03:09:58;;;;;;;15.48;7.85;;;;;;;;;;5048272;28;20065;-58
2022/03/11 03:12:24;;;;;;;13.63;7.30;;;;;;;;;;5054360;28;20049;-58
2022/03/11 03:14:50;;;;;;;13.10;7.20;;;;;;;;;;5044791;28;20041;-58
2022/03/11 03:17:18;;;;;;;14.80;7.78;;;;;;;;;;5050580;28;20048;-59
2022/03/11 03:19:44;;;;;;;13.20;6.80;;;;;;;;;;5046173;28;20052;-58
2022/03/11 03:22:10;;;;;;;16.05;7.38;;;;;;;;;;5050779;28;20056;-61
2022/03/11 03:24:36;;;;;;;12.48;6.88;;;;;;;;;;5045256;28;20045;-59
2022/03/11 03:27:05;;;;;;;13.80;7.40;;;;;;;;;;5050719;28;20041;-58
2022/03/11 03:29:31;;;;;;;19.13;6.97;;;;;;;;;;5028626;28;20072;-62
2022/03/11 03:32:00;;;;;;;13.38;7.72;;;;;;;;;;5048647;28;20091;-59
2022/03/11 03:34:30;;;;;;;13.98;7.20;;;;;;;;;;5029733;28;22169;-58
2022/03/11 03:37:00;;;;;;;16.20;7.32;;;;;;;;;;5049948;28;20059;-59
2022/03/11 03:39:26;;;;;;;14.13;7.13;;;;;;;;;;5001040;28;20443;-59
2022/03/11 03:41:53;;;;;;;18.13;8.10;;;;;;;;;;5051349;28;20045;-60
2022/03/11 03:44:19;;;;;;;17.08;8.65;;;;;;;;;;5032092;28;20053;-58
2022/03/11 03:46:45;;;;;;;15.48;8.02;;;;;;;;;;5019001;28;20079;-59
2022/03/11 03:49:11;;;;;;;15.68;8.18;;;;;;;;;;5054126;28;20607;-59
2022/03/11 03:51:38;;;;;;;18.73;7.88;;;;;;;;;;5051785;28;20049;-59
2022/03/11 03:54:05;;;;;;;14.88;7.47;;;;;;;;;;5020865;28;20057;-59
2022/03/11 03:56:31;;;;;;;18.67;8.80;;;;;;;;;;5053681;28;20162;-60
2022/03/11 03:58:57;;;;;;;13.90;8.35;;;;;;;;;;5036722;28;20060;-59
2022/03/11 04:01:26;;;;;;;16.23;7.43;;;;;;;;;;5050177;28;20042;-59
2022/03/11 04:03:52;;;;;;;15.13;7.22;;;;;;;;;;5053155;28;20064;-58
2022/03/11 04:06:20;;;;;;;16.58;8.82;;;;;;;;;;5035402;28;20083;-58
2022/03/11 04:08:46;;;;;;;17.50;8.00;;;;;;;;;;5034113;28;20049;-60
2022/03/11 04:11:12;;;;;;;17.00;8.75;;;;;;;;;;5042317;28;20044;-59
2022/03/11 04:13:38;;;;;;;16.13;8.77;;;;;;;;;;5036788;28;20401;-59
2022/03/11 04:16:04;;;;;;;14.27;7.47;;;;;;;;;;5036556;28;20052;-62
2022/03/11 04:18:30;;;;;;;13.60;6.78;;;;;;;;;;5053863;28;20106;-59
2022/03/11 04:20:56;;;;;;;16.90;8.85;;;;;;;;;;5057919;28;20041;-59
2022/03/11 04:23:24;;;;;;;14.13;7.45;;;;;;;;;;5053359;28;20144;-59
2022/03/11 04:25:51;;;;;;;15.90;8.60;;;;;;;;;;5032709;28;20045;-58
2022/03/11 04:28:21;;;;;;;18.48;10.07;;;;;;;;;;5035546;28;20091;-59
2022/03/11 04:30:47;;;;;;;;;;;;;;;;;;5052203;28;20041;-59
2022/03/11 04:33:13;;;;;;;18.05;8.73;;;;;;;;;;5035371;28;19932;-59
2022/03/11 04:35:42;;;;;;;18.65;8.95;;;;;;;;;;5050519;28;20072;-59
2022/03/11 04:38:09;;;;;;;16.95;9.20;;;;;;;;;;5053684;28;20045;-59
2022/03/11 04:40:35;;;;;;;15.50;8.30;;;;;;;;;;5035441;28;20041;-58
2022/03/11 04:43:03;;;;;;;19.48;9.35;;;;;;;;;;5054532;28;20084;-58
2022/03/11 04:45:32;;;;;;;23.27;10.40;;;;;;;;;;5048385;28;20053;-59
2022/03/11 04:47:58;;;;;;;20.55;11.02;;;;;;;;;;5035288;28;20124;-58
2022/03/11 04:50:26;;;;;;;16.67;7.65;;;;;;;;;;5033675;28;20049;-58
2022/03/11 04:52:52;;;;;;;21.00;10.35;;;;;;;;;;5030978;28;20083;-61
2022/03/11 04:55:18;;;;;;;18.95;8.85;;;;;;;;;;5049962;28;20053;-58
2022/03/11 04:57:45;;;;;;;19.20;9.10;;;;;;;;;;5051129;28;20057;-61
2022/03/11 05:00:15;;;;;;;20.25;10.48;;;;;;;;;;5037289;28;20481;-58
2022/03/11 05:02:44;;;;;;;18.52;10.23;;;;;;;;;;5052595;28;20071;-58
2022/03/11 05:05:11;;;;;;;16.30;8.02;;;;;;;;;;5050018;28;20049;-59
2022/03/11 05:07:37;;;;;;;18.13;9.48;;;;;;;;;;5053179;28;20048;-59
2022/03/11 05:10:06;;;;;;;19.10;10.38;;;;;;;;;;5033790;28;20098;-58
2022/03/11 05:12:35;;;;;;;17.23;8.63;;;;;;;;;;5069645;28;20098;-58
2022/03/11 05:15:01;;;;;;;20.60;10.13;;;;;;;;;;5039714;28;20041;-59
2022/03/11 05:17:27;;;;;;;19.40;9.88;;;;;;;;;;5061655;28;20085;-58
2022/03/11 05:19:53;;;;;;;22.05;11.60;;;;;;;;;;5050767;28;20386;-58
2022/03/11 05:22:22;;;;;;;19.88;10.20;;;;;;;;;;5052973;28;20099;-58
2022/03/11 05:24:48;;;;;;;21.83;9.60;;;;;;;;;;5032565;28;20040;-58
2022/03/11 05:27:14;;;;;;;18.30;9.52;;;;;;;;;;5052581;28;20055;-59
2022/03/11 05:29:40;;;;;;;20.58;8.38;;;;;;;;;;5053261;28;20048;-59
2022/03/11 05:32:06;;;;;;;19.42;9.60;;;;;;;;;;5052949;28;20101;-58
2022/03/11 05:34:38;;;;;;;25.63;11.70;;;;;;;;;;5049364;28;20049;-58
2022/03/11 05:37:07;;;;;;;21.73;10.10;;;;;;;;;;5035107;28;20409;-60
2022/03/11 05:39:36;;;;;;;22.23;10.02;;;;;;;;;;5051327;28;20517;-59
2022/03/11 05:42:02;;;;;;;28.25;11.82;;;;;;;;;;5052993;28;20147;-58
2022/03/11 05:44:28;;;;;;;16.58;8.15;;;;;;;;;;5030157;28;20476;-58
2022/03/11 05:46:55;;;;;;;22.02;10.35;;;;;;;;;;5052871;28;20055;-59
2022/03/11 05:49:23;;;;;;;23.75;12.25;;;;;;;;;;5052162;28;20493;-59
2022/03/11 05:51:49;;;;;;;22.52;11.52;;;;;;;;;;5049429;28;20037;-58
2022/03/11 05:54:15;;;;;;;20.13;11.85;;;;;;;;;;5050111;28;20050;-60
2022/03/11 05:56:42;;;;;;;23.85;11.30;;;;;;;;;;5051637;28;20048;-59
2022/03/11 05:59:11;;;;;;;19.85;10.90;;;;;;;;;;5052786;28;20049;-58
2022/03/11 06:01:37;;;;;;;23.33;10.60;;;;;;;;;;5052542;28;20041;-58
2022/03/11 06:04:04;;;;;;;19.67;10.68;;;;;;;;;;5050624;28;20064;-59
2022/03/11 06:06:32;;;;;;;21.65;11.85;;;;;;;;;;5052252;28;20057;-58
2022/03/11 06:09:00;;;;;;;21.17;11.25;;;;;;;;;;5050661;28;20072;-59
2022/03/11 06:11:29;;;;;;;24.08;11.65;;;;;;;;;;5031386;28;20087;-59
2022/03/11 06:13:55;;;;;;;22.35;10.77;;;;;;;;;;5045094;28;20508;-58
2022/03/11 06:16:23;;;;;;;23.88;12.85;;;;;;;;;;5030903;28;20057;-58
2022/03/11 06:18:50;;;;;;;24.13;11.45;;;;;;;;;;5032895;28;20049;-58
2022/03/11 06:21:16;;;;;;;20.88;11.00;;;;;;;;;;5050623;28;20108;-58
2022/03/11 06:23:42;;;;;;;29.10;13.30;;;;;;;;;;5014766;28;20061;-58
2022/03/11 06:26:08;;;;;;;21.25;11.68;;;;;;;;;;5034433;28;20045;-58
2022/03/11 06:28:34;;;;;;;21.92;10.90;;;;;;;;;;5015378;28;20136;-58
2022/03/11 06:31:00;;;;;;;19.52;10.15;;;;;;;;;;5048702;28;20128;-59
2022/03/11 06:33:28;;;;;;;23.45;12.40;;;;;;;;;;5027602;28;20064;-59
2022/03/11 06:35:54;;;;;;;25.00;11.50;;;;;;;;;;5050098;28;20456;-60
2022/03/11 06:38:23;;;;;;;23.08;12.35;;;;;;;;;;5050950;28;20125;-58
2022/03/11 06:40:53;;;;;;;19.25;10.80;;;;;;;;;;5049836;28;20488;-58
2022/03/11 06:43:19;;;;;;;;;;;;;;;;;;5030261;28;20202;-58
2022/03/11 06:45:45;;;;;;;22.60;12.02;;;;;;;;;;5051430;28;20383;-59
2022/03/11 06:48:14;;;;;;;21.40;11.68;;;;;;;;;;5033808;28;20090;-58
2022/03/11 06:50:40;;;;;;;21.73;12.05;;;;;;;;;;5051746;28;20501;-58
2022/03/11 06:53:06;;;;;;;23.15;11.52;;;;;;;;;;5033517;28;20052;-59
2022/03/11 06:55:32;;;;;;;22.50;11.38;;;;;;;;;;5051978;28;20037;-59
2022/03/11 06:58:00;;;;;;;25.30;11.90;;;;;;;;;;5051862;28;20041;-59
2022/03/11 07:00:26;;;;;;;22.52;11.27;;;;;;;;;;5051887;28;20106;-59
2022/03/11 07:02:52;;;;;;;16.13;9.35;;;;;;;;;;5030151;28;20085;-61
2022/03/11 07:05:18;;;;;;;23.48;11.60;;;;;;;;;;5032977;28;20049;-59
2022/03/11 07:07:45;;;;;;;25.88;12.75;;;;;;;;;;5051270;28;20045;-60
2022/03/11 07:10:11;;;;;;;25.17;13.07;;;;;;;;;;5055117;28;20049;-59
2022/03/11 07:12:38;;;;;;;24.90;12.80;;;;;;;;;;5033232;28;20052;-60
2022/03/11 07:15:05;;;;;;;26.15;10.60;;;;;;;;;;5033400;28;20041;-59
2022/03/11 07:17:34;;;;;;;25.00;10.63;;;;;;;;;;5034215;28;20057;-59
2022/03/11 07:20:00;;;;;;;26.35;11.98;;;;;;;;;;5051230;28;20045;-60
2022/03/11 07:22:29;;;;;;;25.23;12.90;;;;;;;;;;5037803;28;20052;-60
2022/03/11 07:24:55;;;;;;;25.17;11.95;;;;;;;;;;5049788;28;20078;-61
2022/03/11 07:27:22;;;;;;;25.83;12.52;;;;;;;;;;5054130;28;20059;-59
2022/03/11 07:29:49;;;;;;;24.30;11.93;;;;;;;;;;5054766;28;20044;-59
2022/03/11 07:32:16;;;;;;;21.58;11.68;;;;;;;;;;5050699;28;20065;-60
2022/03/11 07:34:42;;;;;;;25.70;11.70;;;;;;;;;;5054950;28;20106;-61
2022/03/11 07:37:12;;;;;;;24.38;12.00;;;;;;;;;;5055195;28;20138;-59
2022/03/11 07:39:39;;;;;;;20.17;11.55;;;;;;;;;;5055031;28;20049;-60
2022/03/11 07:42:05;;;;;;;29.13;12.25;;;;;;;;;;5037928;28;20053;-59
2022/03/11 07:44:33;;;;;;;23.90;11.82;;;;;;;;;;5054649;28;20067;-59
2022/03/11 07:46:59;;;;;;;27.95;13.27;;;;;;;;;;5020780;28;20052;-59
2022/03/11 07:49:27;;;;;;;21.10;10.60;;;;;;;;;;5021097;28;20059;-60
2022/03/11 07:51:53;;;;;;;25.08;12.50;;;;;;;;;;5054971;28;20077;-60
2022/03/11 07:54:19;;;;;;;19.05;10.45;;;;;;;;;;5054201;28;20076;-61
2022/03/11 07:56:45;;;;;;;22.27;13.07;;;;;;;;;;5055302;28;20041;-62
2022/03/11 07:59:11;;;;;;;23.58;12.25;;;;;;;;;;5055196;28;20127;-57
2022/03/11 08:01:37;;;;;;;20.98;11.70;;;;;;;;;;5054201;28;20187;-60
2022/03/11 08:04:06;;;;;;;25.50;11.65;;;;;;;;;;5053966;28;20080;-59
2022/03/11 08:06:32;;;;;;;20.65;10.52;;;;;;;;;;5035984;28;20051;-60
2022/03/11 08:08:58;;;;;;;19.55;9.50;;;;;;;;;;5037160;28;20053;-59
2022/03/11 08:11:25;;;;;;;22.27;10.25;;;;;;;;;;5054473;28;20048;-60
2022/03/11 08:13:51;;;;;;;24.20;12.05;;;;;;;;;;5054531;28;20408;-60
2022/03/11 08:16:17;;;;;;;20.52;11.38;;;;;;;;;;5054494;28;20052;-60
2022/03/11 08:18:45;;;;;;;22.83;11.05;;;;;;;;;;5054941;28;20063;-59
2022/03/11 08:21:12;;;;;;;22.92;12.27;;;;;;;;;;5054222;28;20041;-60
2022/03/11 08:23:40;;;;;;;16.98;8.95;;;;;;;;;;5054490;28;20090;-59
2022/03/11 08:26:06;;;;;;;17.77;9.90;;;;;;;;;;5054412;28;20041;-60
2022/03/11 08:28:33;;;;;;;19.58;11.27;;;;;;;;;;5054583;28;20052;-59
2022/03/11 08:30:59;;;;;;;19.27;10.15;;;;;;;;;;5053684;28;20076;-60
2022/03/11 08:33:25;;;;;;;18.40;9.88;;;;;;;;;;5053114;28;20045;-61
2022/03/11 08:35:53;;;;;;;20.75;11.70;;;;;;;;;;5054454;28;20040;-60
2022/03/11 08:38:19;;;;;;;21.88;11.18;;;;;;;;;;5052313;28;20060;-59
2022/03/11 08:40:45;;;;;;;21.15;7.80;;;;;;;;;;5053376;28;20045;-61
2022/03/11 08:43:11;;;;;;;22.42;13.05;;;;;;;;;;5044044;28;20045;-59
2022/03/11 08:45:37;;;;;;;22.98;12.05;;;;;;;;;;5036477;28;20045;-59
2022/03/11 08:48:03;;;;;;;21.38;10.32;;;;;;;;;;5036208;28;20045;-59
2022/03/11 08:50:29;;;;;;;23.02;12.43;;;;;;;;;;5047005;28;20056;-59
2022/03/11 08:52:55;;;;;;;23.80;12.93;;;;;;;;;;5034135;28;20451;-59
2022/03/11 08:55:22;;;;;;;21.45;11.23;;;;;;;;;;5035605;28;20045;-59
2022/03/11 08:57:52;;;;;;;22.35;11.82;;;;;;;;;;5052566;28;20120;-59
2022/03/11 09:00:19;;;;;;;24.25;12.02;;;;;;;;;;5018165;28;20172;-60
2022/03/11 09:02:45;;;;;;;21.83;12.38;;;;;;;;;;5035194;28;20041;-59
2022/03/11 09:05:11;;;;;;;23.08;12.05;;;;;;;;;;5044508;28;20105;-60
2022/03/11 09:07:38;;;;;;;21.50;12.32;;;;;;;;;;5019104;28;20048;-59
2022/03/11 09:10:05;;;;;;;21.58;12.98;;;;;;;;;;5032055;28;20489;-58
2022/03/11 09:12:31;;;;;;;20.50;11.48;;;;;;;;;;5036538;28;20049;-59
2022/03/11 09:14:57;;;;;;;24.63;12.60;;;;;;;;;;5034036;28;20128;-59
2022/03/11 09:17:23;;;;;;;18.92;11.30;;;;;;;;;;5041029;28;20041;-59
2022/03/11 09:19:51;;;;;;;22.45;12.73;;;;;;;;;;5037975;28;20038;-56
2022/03/11 09:22:17;;;;;;;20.58;8.98;;;;;;;;;;5052240;28;20136;-58
2022/03/11 09:24:47;;;;;;;25.60;12.02;;;;;;;;;;5034252;28;20045;-58
2022/03/11 09:27:13;;;;;;;22.95;11.68;;;;;;;;;;5053584;28;20048;-58
2022/03/11 09:29:42;;;;;;;16.60;9.15;;;;;;;;;;5032932;28;20048;-57
2022/03/11 09:32:08;;;;;;;21.45;12.80;;;;;;;;;;5053203;28;20045;-58
2022/03/11 09:34:36;;;;;;;22.80;12.40;;;;;;;;;;5052626;28;20051;-60
2022/03/11 09:37:02;;;;;;;22.73;12.80;;;;;;;;;;5034159;28;20421;-58
2022/03/11 09:39:28;;;;;;;23.92;12.63;;;;;;;;;;5018475;28;20400;-58
2022/03/11 09:41:54;;;;;;;22.90;12.98;;;;;;;;;;5053307;28;20056;-58
2022/03/11 09:44:20;;;;;;;19.05;10.65;;;;;;;;;;5052150;28;20516;-58
2022/03/11 09:46:46;;;;;;;23.63;13.05;;;;;;;;;;5052367;28;20045;-58
2022/03/11 09:49:13;;;;;;;19.63;11.18;;;;;;;;;;5016613;28;20056;-58
2022/03/11 09:51:45;;;;;;;21.30;11.43;;;;;;;;;;5017025;28;20519;-57
2022/03/11 09:54:11;;;;;;;20.10;12.98;;;;;;;;;;5007713;28;20053;-58
2022/03/11 09:56:41;;;;;;;21.40;13.75;;;;;;;;;;5034747;28;20063;-58
2022/03/11 09:59:11;;;;;;;21.83;11.17;;;;;;;;;;5034323;28;20057;-57
2022/03/11 10:01:37;;;;;;;21.37;11.97;;;;;;;;;;5045347;28;20068;-58
2022/03/11 10:04:04;;;;;;;21.17;11.20;;;;;;;;;;5033637;28;21117;-58
2022/03/11 10:06:46;;;;;;;23.60;11.88;;;;;;;;;;5017263;28;20053;-60
2022/03/11 10:09:19;;;;;;;21.60;12.18;;;;;;;;;;5014582;28;20132;-58
2022/03/11 10:12:08;;;;;;;18.15;10.52;;;;;;;;;;5034234;28;20128;-58
2022/03/11 10:14:35;;;;;;;22.05;13.10;;;;;;;;;;5045031;28;20053;-59
2022/03/11 10:17:03;;;;;;;19.15;10.88;;;;;;;;;;5037431;28;20084;-60
2022/03/11 10:19:29;;;;;;;20.65;11.68;;;;;;;;;;5039351;28;20136;-60
2022/03/11 10:21:57;;;;;;;21.33;11.40;;;;;;;;;;5044716;28;20528;-58
2022/03/11 10:24:24;;;;;;;21.08;12.55;;;;;;;;;;5034344;28;20139;-59
2022/03/11 10:26:55;;;;;;;19.70;10.45;;;;;;;;;;5032894;28;20475;-59
2022/03/11 10:29:23;;;;;;;18.33;11.65;;;;;;;;;;5015292;28;20442;-59
2022/03/11 10:31:51;;;;;;;22.02;13.63;;;;;;;;;;5017529;28;20045;-59
2022/03/11 10:34:21;;;;;;;21.67;11.55;;;;;;;;;;5029870;28;20527;-59
2022/03/11 10:36:50;;;;;;;22.83;13.07;;;;;;;;;;5032398;28;20046;-58
2022/03/11 10:39:17;;;;;;;20.83;11.60;;;;;;;;;;5015409;28;20110;-59
2022/03/11 10:41:43;;;;;;;21.83;10.68;;;;;;;;;;5050675;28;20120;-59
2022/03/11 10:44:09;;;;;;;19.20;9.18;;;;;;;;;;5050884;28;20137;-58
2022/03/11 10:46:36;;;;;;;22.05;12.27;;;;;;;;;;5032941;28;20504;-58
2022/03/11 10:49:02;;;;;;;20.75;10.80;;;;;;;;;;5051579;28;20099;-58
2022/03/11 10:51:30;;;;;;;21.88;12.85;;;;;;;;;;5052282;28;20098;-58
2022/03/11 10:53:56;;;;;;;26.30;13.57;;;;;;;;;;5051877;28;20049;-59
2022/03/11 10:56:26;;;;;;;23.55;11.18;;;;;;;;;;5050471;28;20045;-58
2022/03/11 10:58:52;;;;;;;22.77;12.97;;;;;;;;;;5052029;28;20041;-58
2022/03/11 11:01:35;;;;;;;20.65;11.07;;;;;;;;;;5033920;28;20123;-58
2022/03/11 11:04:02;;;;;;;22.70;11.63;;;;;;;;;;5051620;28;20122;-58
2022/03/11 11:06:28;;;;;;;22.92;11.52;;;;;;;;;;5033215;28;20084;-58
2022/03/11 11:08:55;;;;;;;19.63;12.32;;;;;;;;;;5015266;28;20087;-59
2022/03/11 11:11:22;;;;;;;20.60;12.13;;;;;;;;;;5050164;28;20118;-59
2022/03/11 11:13:48;;;;;;;22.60;13.38;;;;;;;;;;5033428;28;20041;-57
2022/03/11 11:16:16;;;;;;;24.23;14.27;;;;;;;;;;5034117;28;20063;-57
2022/03/11 11:18:46;;;;;;;23.65;11.82;;;;;;;;;;5033236;28;20057;-59
2022/03/11 11:21:13;;;;;;;22.52;11.13;;;;;;;;;;5047318;28;20041;-56
2022/03/11 11:23:39;;;;;;;23.50;13.10;;;;;;;;;;5048172;28;20049;-57
2022/03/11 11:26:10;;;;;;;24.88;12.73;;;;;;;;;;5051305;28;20044;-57
2022/03/11 11:28:36;;;;;;;;;;;;;;;;;;5032730;28;20057;-56
2022/03/11 11:31:04;;;;;;;22.95;13.43;;;;;;;;;;5051406;28;19920;-57
2022/03/11 11:33:30;;;;;;;18.92;11.30;;;;;;;;;;5033822;28;20142;-56
2022/03/11 11:36:01;;;;;;;28.08;13.70;;;;;;;;;;5034099;28;20499;-60
2022/03/11 11:38:38;;;;;;;23.33;12.07;;;;;;;;;;5031315;28;20053;-58
2022/03/11 11:41:25;;;;;;;22.50;10.88;;;;;;;;;;5048690;28;20048;-56
2022/03/11 11:43:57;;;;;;;25.17;13.45;;;;;;;;;;5051173;28;20111;-58
2022/03/11 11:46:25;;;;;;;21.90;13.13;;;;;;;;;;5031562;28;20502;-59
2022/03/11 11:48:52;;;;;;;27.25;13.60;;;;;;;;;;4999456;28;20049;-56
2022/03/11 11:51:38;;;;;;;21.73;13.45;;;;;;;;;;5017105;28;20056;-57
2022/03/11 11:54:12;;;;;;;27.42;13.95;;;;;;;;;;5037394;28;20509;-56
2022/03/11 11:57:00;;;;;;;24.02;13.13;;;;;;;;;;5015982;28;20049;-56
2022/03/11 11:59:35;;;;;;;22.52;12.32;;;;;;;;;;5017042;28;20049;-59
2022/03/11 12:02:23;;;;;;;23.92;13.60;;;;;;;;;;5032966;28;20045;-59
2022/03/11 12:04:52;;;;;;;21.95;11.73;;;;;;;;;;5032846;28;20115;-59
2022/03/11 12:07:23;;;;;;;24.45;14.90;;;;;;;;;;5052060;28;20052;-60
2022/03/11 12:10:04;;;;;;;22.48;13.82;;;;;;;;;;5054266;28;20068;-60
2022/03/11 12:12:35;;;;;;;;;;;12.80;99.90;;;;;;5055100;28;20056;-59
2022/03/11 12:15:04;;;;;;;20.60;12.95;;;;;;;;;;5054613;28;19995;-59
2022/03/11 12:17:39;;;;;;;21.05;12.40;;;;;;;;;;5054309;28;20819;-59
2022/03/11 12:20:23;;;;;;;21.35;11.23;;;;;;;;;;5055117;28;20049;-59
2022/03/11 12:22:54;;;;;;;20.05;12.00;;;;;;;;;;5054525;28;20132;-60
2022/03/11 12:25:21;;;;;;;;;;;12.70;99.90;;;;;;5055439;28;20060;-59
2022/03/11 12:28:07;;;;;;;24.48;14.50;;;;;;;;;;5054018;28;20080;-60
2022/03/11 12:30:36;;;;;;;21.40;12.73;;;;;;;;;;5038841;28;20049;-59
2022/03/11 12:33:10;;;;;;;23.48;12.50;;;;;;;;;;5053717;28;20073;-59
2022/03/11 12:35:43;;;;;;;20.65;12.50;;;;;;;;;;5037050;28;20523;-60
2022/03/11 12:38:22;;;;;;;22.90;13.15;;;;;;;;;;5037499;28;20041;-59
2022/03/11 12:40:49;;;;;;;20.30;12.52;;;;;;;;;;5054177;28;20095;-59
2022/03/11 12:43:15;;;;;;;20.30;13.20;;;;;;;;;;5053355;28;20048;-60
2022/03/11 12:45:43;;;;;;;23.25;14.05;;;;;;;;;;5034398;28;20373;-60
2022/03/11 12:48:10;;;;;;;23.33;12.98;;;;;;;;;;5018445;28;20571;-60
2022/03/11 12:50:37;;;;;;;24.90;12.55;;;;;;;;;;5034350;28;20092;-60
2022/03/11 12:53:06;;;;;;;23.30;13.57;;;;;;;;;;5002831;28;20477;-61
2022/03/11 12:55:33;;;;;;;21.45;12.75;;;;;;;;;;5053208;28;20488;-61
2022/03/11 12:58:00;;;;;;;22.38;12.90;;;;;;;;;;5053267;28;20041;-61
2022/03/11 13:00:31;;;;;;;19.00;11.40;;;;;;;;;;5033870;28;20500;-61
2022/03/11 13:02:58;;;;;;;21.13;12.45;;;;;;;;;;5035023;28;20084;-60
2022/03/11 13:05:25;;;;;;;21.55;13.57;;;;;;;;;;5019044;28;20057;-61
2022/03/11 13:07:52;;;;;;;19.85;12.27;;;;;;;;;;5016090;28;20049;-60
2022/03/11 13:10:24;;;;;;;24.38;14.52;;;;;;;;;;5034190;28;20044;-60
2022/03/11 13:12:51;;;;;;;24.70;12.77;;;;;;;;;;5018330;28;20094;-60
2022/03/11 13:15:26;;;;;;;21.52;12.15;;;;;;;;;;5035559;28;20068;-60
2022/03/11 13:18:04;;;;;;;25.60;13.55;;;;;;;;;;5051890;28;20080;-61
2022/03/11 13:20:30;;;;;;;21.95;13.15;;;;;;;;;;5033282;28;20072;-62
2022/03/11 13:23:00;;;;;;;25.20;14.23;;;;;;;;;;5017051;28;20037;-62
2022/03/11 13:25:28;;;;;;;20.77;13.68;;;;;;;;;;5016487;28;20501;-61
2022/03/11 13:28:03;;;;;;;24.13;13.50;;;;;;;;;;5018452;28;20048;-60
2022/03/11 13:30:39;;;;;;;23.55;13.80;;;;;;;;;;5053143;28;20051;-60
2022/03/11 13:33:12;;;;;;;19.02;12.20;;;;;;;;;;5034275;28;20072;-60
2022/03/11 13:35:41;;;;;;;23.92;13.68;;;;;;;;;;5053675;28;20127;-60
2022/03/11 13:38:11;;;;;;;22.23;13.27;;;;;;;;;;5035836;28;20124;-60
2022/03/11 13:40:37;;;;;;;24.10;13.75;;;;;;;;;;5051515;28;20049;-61
2022/03/11 13:43:04;;;;;;;21.75;12.25;;;;;;;;;;5034627;28;20056;-61
2022/03/11 13:45:31;;;;;;;22.90;12.95;;;;;;;;;;5053200;28;20543;-60
2022/03/11 13:48:07;;;;;;;20.88;12.48;;;;;;;;;;5034508;28;20052;-60
2022/03/11 13:50:36;;;;;;;17.70;11.65;;;;;;;;;;5016029;28;20145;-60
2022/03/11 13:53:03;;;;;;;22.42;13.75;;;;;;;;;;5052662;28;20087;-60
2022/03/11 13:55:33;;;;;;;22.52;13.75;;;;;;;;;;5053038;28;20049;-60
2022/03/11 13:58:14;;;;;;;20.58;13.07;;;;;;;;;;5035107;28;20048;-60
2022/03/11 14:00:43;;;;;;;21.48;13.18;;;;;;;;;;5034887;28;20560;-60
2022/03/11 14:03:19;;;;;;;18.88;10.77;;;;;;;;;;5052284;28;20045;-60
2022/03/11 14:05:46;;;;;;;20.73;11.77;;;;;;;;;;5052650;28;20128;-60
2022/03/11 14:08:25;;;;;;;17.08;9.80;;;;;;;;;;5052190;28;20493;-60
2022/03/11 14:10:51;;;;;;;24.67;13.48;;;;;;;;;;5034496;28;20042;-60
2022/03/11 14:13:21;;;;;;;16.88;10.90;;;;;;;;;;5052927;28;20052;-60
2022/03/11 14:15:47;;;;;;;21.73;12.02;;;;;;;;;;5051748;28;20055;-60
2022/03/11 14:18:14;;;;;;;23.15;12.35;;;;;;;;;;5033376;28;20504;-61
2022/03/11 14:20:41;;;;;;;20.15;11.30;;;;;;;;;;5052078;28;20053;-60
2022/03/11 14:23:07;;;;;;;19.05;11.25;;;;;;;;;;5013004;28;20037;-60
2022/03/11 14:25:33;;;;;;;20.25;11.52;;;;;;;;;;5047360;28;20041;-61
2022/03/11 14:28:00;;;;;;;19.85;12.70;;;;;;;;;;5025148;28;20044;-62